createdAt,value
2023-03-06T00:02:05.232Z,2.40
2023-03-06T00:04:31.577Z,2.78
2023-03-06T00:06:58.291Z,2.33
2023-03-06T00:09:24.604Z,2.42
2023-03-06T00:11:50.955Z,2.28
2023-03-06T00:14:17.329Z,2.60
2023-03-06T00:16:44.383Z,2.70
2023-03-06T00:19:10.864Z,2.83
2023-03-06T00:21:37.169Z,2.53
2023-03-06T00:24:03.580Z,2.40
2023-03-06T00:26:33.844Z,2.92
2023-03-06T00:29:00.195Z,2.67
2023-03-06T00:31:27.955Z,2.85
2023-03-06T00:33:54.292Z,2.88
2023-03-06T00:36:20.785Z,2.58
2023-03-06T00:38:47.130Z,3.03
2023-03-06T00:41:13.536Z,3.30
2023-03-06T00:43:39.915Z,3.10
2023-03-06T00:46:07.722Z,3.13
2023-03-06T00:48:34.135Z,3.50
2023-03-06T00:51:00.983Z,3.28
2023-03-06T00:53:27.313Z,3.45
2023-03-06T00:55:53.652Z,3.05
2023-03-06T00:58:20.116Z,2.35
2023-03-06T01:00:46.540Z,3.00
2023-03-06T01:03:12.968Z,2.40
2023-03-06T01:05:39.687Z,2.42
2023-03-06T01:08:06.512Z,2.22
2023-03-06T01:10:33.623Z,2.20
2023-03-06T01:13:00.001Z,2.63
2023-03-06T01:15:26.319Z,1.95
2023-03-06T01:17:54.420Z,2.30
2023-03-06T01:20:21.588Z,2.40
2023-03-06T01:22:48.038Z,2.45
2023-03-06T01:25:15.256Z,2.55
2023-03-06T01:27:42.364Z,2.90
2023-03-06T01:30:10.707Z,2.70
2023-03-06T01:32:38.364Z,3.67
2023-03-06T01:35:05.508Z,3.50
2023-03-06T01:37:32.329Z,3.83
2023-03-06T01:39:58.683Z,3.85
2023-03-06T01:42:25.099Z,4.20
2023-03-06T01:44:57.954Z,4.80
2023-03-06T01:49:51.414Z,3.53
2023-03-06T01:52:19.886Z,4.38
2023-03-06T01:54:54.717Z,5.00
2023-03-06T01:57:29.457Z,4.78
2023-03-06T01:59:59.341Z,5.35
2023-03-06T02:02:25.983Z,5.40
2023-03-06T02:04:52.496Z,5.25
2023-03-06T02:07:21.074Z,5.38
2023-03-06T02:09:47.486Z,5.85
2023-03-06T02:12:17.176Z,5.10
2023-03-06T02:14:46.392Z,5.28
2023-03-06T02:17:13.863Z,5.50
2023-03-06T02:19:40.198Z,4.82
2023-03-06T02:22:07.199Z,5.40
2023-03-06T02:24:33.614Z,6.22
2023-03-06T02:27:00.966Z,6.15
2023-03-06T02:29:28.768Z,5.97
2023-03-06T02:31:58.850Z,6.38
2023-03-06T02:34:25.478Z,6.38
2023-03-06T02:36:53.128Z,5.35
2023-03-06T02:39:22.389Z,6.80
2023-03-06T02:41:48.949Z,6.93
2023-03-06T02:44:16.739Z,8.73
2023-03-06T02:46:43.136Z,7.65
2023-03-06T02:49:09.713Z,7.25
2023-03-06T02:51:36.155Z,8.80
2023-03-06T02:54:02.628Z,7.93
2023-03-06T02:56:31.774Z,5.88
2023-03-06T02:58:59.003Z,8.25
2023-03-06T03:01:25.469Z,7.90
2023-03-06T03:03:52.090Z,8.70
2023-03-06T03:06:20.643Z,7.28
2023-03-06T03:08:48.287Z,7.70
2023-03-06T03:11:14.696Z,7.22
2023-03-06T03:13:43.703Z,7.95
2023-03-06T03:16:15.849Z,8.93
2023-03-06T03:18:44.458Z,8.20
2023-03-06T03:21:12.759Z,6.68
2023-03-06T03:23:39.315Z,7.88
2023-03-06T03:26:06.815Z,7.60
2023-03-06T03:28:34.293Z,8.30
2023-03-06T03:31:04.712Z,7.93
2023-03-06T03:33:31.241Z,8.50
2023-03-06T03:35:58.224Z,7.78
2023-03-06T03:38:31.408Z,8.07
2023-03-06T03:40:58.001Z,7.00
2023-03-06T03:43:24.472Z,7.10
2023-03-06T03:45:52.558Z,7.13
2023-03-06T03:48:19.355Z,7.90
2023-03-06T03:50:45.785Z,7.05
2023-03-06T03:53:13.205Z,7.55
2023-03-06T03:55:40.270Z,7.25
2023-03-06T03:58:06.759Z,7.18
2023-03-06T04:00:33.682Z,5.10
2023-03-06T04:03:10.104Z,7.50
2023-03-06T04:05:44.932Z,6.93
2023-03-06T04:08:14.160Z,7.35
2023-03-06T04:10:43.371Z,7.28
2023-03-06T04:13:11.606Z,7.30
2023-03-06T04:15:41.806Z,7.80
2023-03-06T04:18:08.774Z,6.70
2023-03-06T04:20:35.646Z,7.65
2023-03-06T04:23:02.679Z,7.47
2023-03-06T04:25:29.195Z,7.32
2023-03-06T04:27:55.737Z,7.38
2023-03-06T04:30:24.698Z,7.60
2023-03-06T04:32:51.384Z,7.22
2023-03-06T04:35:18.423Z,7.10
2023-03-06T04:37:54.342Z,6.07
2023-03-06T04:40:23.799Z,6.88
2023-03-06T04:42:50.483Z,5.88
2023-03-06T04:45:16.862Z,6.57
2023-03-06T04:47:43.331Z,6.78
2023-03-06T04:50:10.319Z,5.57
2023-03-06T04:52:36.648Z,6.00
2023-03-06T04:55:08.495Z,6.28
2023-03-06T04:57:36.708Z,4.70
2023-03-06T05:00:04.643Z,6.43
2023-03-06T05:02:31.001Z,5.93
2023-03-06T05:04:57.424Z,6.22
2023-03-06T05:07:23.773Z,6.43
2023-03-06T05:09:50.151Z,6.32
2023-03-06T05:12:16.710Z,5.43
2023-03-06T05:14:47.997Z,6.07
2023-03-06T05:17:14.477Z,6.93
2023-03-06T05:19:40.829Z,4.22
2023-03-06T05:22:07.226Z,4.88
2023-03-06T05:24:33.594Z,5.00
2023-03-06T05:27:00.087Z,3.78
2023-03-06T05:29:26.483Z,4.78
2023-03-06T05:31:53.099Z,4.90
2023-03-06T05:34:21.255Z,4.53
2023-03-06T05:36:47.733Z,3.90
2023-03-06T05:39:14.160Z,5.00
2023-03-06T05:41:40.532Z,4.40
2023-03-06T05:44:06.965Z,3.85
2023-03-06T05:46:33.369Z,3.95
2023-03-06T05:48:59.804Z,3.75
2023-03-06T05:51:26.705Z,3.60
2023-03-06T05:53:53.043Z,3.95
2023-03-06T05:56:19.477Z,4.15
2023-03-06T05:58:46.519Z,3.75
2023-03-06T06:01:15.136Z,3.83
2023-03-06T06:03:42.088Z,3.53
2023-03-06T06:06:09.697Z,3.95
2023-03-06T06:08:36.147Z,3.85
2023-03-06T06:11:06.638Z,3.20
2023-03-06T06:13:33.315Z,3.65
2023-03-06T06:15:59.940Z,4.32
2023-03-06T06:18:26.427Z,3.25
2023-03-06T06:20:54.903Z,3.50
2023-03-06T06:23:22.186Z,3.22
2023-03-06T06:25:48.529Z,2.42
2023-03-06T06:28:14.868Z,2.90
2023-03-06T06:30:41.455Z,2.30
2023-03-06T06:33:07.862Z,2.50
2023-03-06T06:35:37.421Z,2.28
2023-03-06T06:38:03.906Z,2.10
2023-03-06T06:40:32.430Z,2.30
2023-03-06T06:42:58.752Z,1.85
2023-03-06T06:45:25.157Z,1.92
2023-03-06T06:47:51.954Z,1.90
2023-03-06T06:50:18.599Z,1.60
2023-03-06T06:52:45.121Z,1.95
2023-03-06T06:55:12.166Z,1.42
2023-03-06T06:57:39.588Z,1.50
2023-03-06T07:00:06.264Z,1.67
2023-03-06T07:02:33.056Z,1.23
2023-03-06T07:05:04.967Z,1.40
2023-03-06T07:07:33.721Z,1.52
2023-03-06T07:10:00.125Z,1.55
2023-03-06T07:12:26.489Z,1.52
2023-03-06T07:14:52.792Z,1.50
2023-03-06T07:17:19.288Z,1.50
2023-03-06T07:19:45.683Z,1.48
2023-03-06T07:22:12.322Z,1.80
2023-03-06T07:24:38.673Z,1.23
2023-03-06T07:27:07.884Z,1.90
2023-03-06T07:29:34.540Z,1.10
2023-03-06T07:32:01.052Z,1.75
2023-03-06T07:34:27.516Z,1.30
2023-03-06T07:36:53.943Z,1.20
2023-03-06T07:39:20.626Z,1.40
2023-03-06T07:41:46.975Z,1.48
2023-03-06T07:44:13.398Z,1.10
2023-03-06T07:46:39.945Z,1.40
2023-03-06T07:49:06.406Z,1.40
2023-03-06T07:51:32.844Z,0.75
2023-03-06T07:53:59.217Z,1.20
2023-03-06T07:56:25.935Z,0.98
2023-03-06T07:58:52.327Z,1.42
2023-03-06T08:01:19.995Z,1.15
2023-03-06T08:03:47.054Z,1.27
2023-03-06T08:06:15.169Z,1.48
2023-03-06T08:08:42.916Z,0.70
2023-03-06T08:11:10.298Z,1.05
2023-03-06T08:13:36.838Z,0.90
2023-03-06T08:16:03.268Z,1.00
2023-03-06T08:18:29.820Z,0.70
2023-03-06T08:21:10.250Z,0.80
2023-03-06T08:23:36.971Z,0.80
2023-03-06T08:26:06.459Z,0.82
2023-03-06T08:28:32.966Z,0.80
2023-03-06T08:31:07.086Z,1.02
2023-03-06T08:33:33.422Z,0.70
2023-03-06T08:36:01.392Z,1.27
2023-03-06T08:38:28.668Z,0.80
2023-03-06T08:40:55.025Z,0.90
2023-03-06T08:43:21.400Z,1.10
2023-03-06T08:45:55.197Z,0.90
2023-03-06T08:48:21.596Z,1.00
2023-03-06T08:50:48.107Z,1.30
2023-03-06T08:53:15.905Z,0.70
2023-03-06T08:55:43.335Z,0.80
2023-03-06T08:58:09.736Z,0.90
2023-03-06T09:00:36.679Z,1.23
2023-03-06T09:03:03.611Z,1.10
2023-03-06T09:05:30.002Z,0.85
2023-03-06T09:07:56.526Z,1.20
2023-03-06T09:10:24.263Z,0.60
2023-03-06T09:12:53.780Z,0.77
2023-03-06T09:15:21.893Z,0.80
2023-03-06T09:17:48.482Z,0.88
2023-03-06T09:20:15.165Z,0.73
2023-03-06T09:22:45.569Z,0.70
2023-03-06T09:25:20.286Z,0.88
2023-03-06T09:27:51.423Z,1.10
2023-03-06T09:30:22.028Z,1.00
2023-03-06T09:32:48.509Z,1.30
2023-03-06T09:35:14.940Z,1.00
2023-03-06T09:37:41.837Z,0.88
2023-03-06T09:40:14.557Z,0.90
2023-03-06T09:42:40.962Z,0.73
2023-03-06T09:45:07.398Z,0.90
2023-03-06T09:47:52.285Z,0.80
2023-03-06T09:50:18.579Z,0.68
2023-03-06T09:53:12.088Z,0.45
2023-03-06T09:55:40.045Z,0.70
2023-03-06T09:58:18.500Z,0.75
2023-03-06T10:00:50.762Z,0.75
2023-03-06T10:03:26.129Z,1.13
2023-03-06T10:05:59.286Z,0.82
2023-03-06T10:08:48.439Z,0.82
2023-03-06T10:11:17.164Z,0.70
2023-03-06T10:13:45.741Z,0.80
2023-03-06T10:16:28.907Z,0.80
2023-03-06T10:18:56.358Z,0.60
2023-03-06T10:21:25.603Z,0.95
2023-03-06T10:23:53.768Z,0.90
2023-03-06T10:26:22.663Z,0.60
2023-03-06T10:28:55.034Z,0.65
2023-03-06T10:31:28.026Z,0.82
2023-03-06T10:33:54.384Z,0.70
2023-03-06T10:36:22.353Z,0.60
2023-03-06T10:38:50.171Z,0.47
2023-03-06T10:41:21.291Z,0.80
2023-03-06T10:43:59.509Z,0.75
2023-03-06T10:46:27.690Z,0.60
2023-03-06T10:48:59.266Z,0.70
2023-03-06T10:51:27.101Z,0.70
2023-03-06T10:53:54.805Z,1.05
2023-03-06T10:56:32.831Z,0.68
2023-03-06T10:59:07.568Z,1.10
2023-03-06T11:01:34.097Z,0.88
2023-03-06T11:04:15.617Z,0.73
2023-03-06T11:06:42.094Z,0.80
2023-03-06T11:09:26.283Z,0.60
2023-03-06T11:11:53.653Z,0.82
2023-03-06T11:14:22.879Z,0.80
2023-03-06T11:16:53.318Z,0.80
2023-03-06T11:19:26.466Z,0.80
2023-03-06T11:22:04.389Z,0.80
2023-03-06T11:24:39.486Z,0.88
2023-03-06T11:27:17.832Z,0.73
2023-03-06T11:29:46.724Z,1.02
2023-03-06T11:32:28.951Z,0.80
2023-03-06T11:35:06.448Z,0.90
2023-03-06T11:37:53.868Z,0.82
2023-03-06T11:40:20.223Z,0.70
2023-03-06T11:43:04.689Z,0.55
2023-03-06T11:45:37.184Z,0.75
2023-03-06T11:48:17.337Z,0.85
2023-03-06T11:50:46.498Z,0.93
2023-03-06T11:53:20.258Z,0.95
2023-03-06T11:55:48.643Z,0.80
2023-03-06T11:58:23.865Z,1.00
2023-03-06T12:00:58.088Z,1.35
2023-03-06T12:03:36.581Z,1.00
2023-03-06T12:06:24.804Z,1.10
2023-03-06T12:08:54.095Z,1.00
2023-03-06T12:11:23.089Z,1.00
2023-03-06T12:16:40.015Z,1.42
2023-03-06T12:19:15.256Z,0.90
2023-03-06T12:21:47.706Z,1.27
2023-03-06T12:24:33.014Z,1.38
2023-03-06T12:27:05.062Z,1.50
2023-03-06T12:29:31.484Z,1.60
2023-03-06T12:32:17.609Z,1.67
2023-03-06T12:35:05.742Z,1.30
2023-03-06T12:37:50.891Z,1.40
2023-03-06T12:40:21.937Z,1.38
2023-03-06T12:43:05.969Z,1.88
2023-03-06T12:45:37.032Z,2.05
2023-03-06T12:48:04.685Z,1.67
2023-03-06T12:50:37.011Z,1.63
2023-03-06T12:53:05.582Z,1.80
2023-03-06T12:55:38.615Z,1.85
2023-03-06T12:58:34.170Z,1.45
2023-03-06T13:01:24.106Z,1.63
2023-03-06T13:03:59.789Z,1.50
2023-03-06T13:06:32.441Z,1.50
2023-03-06T13:09:12.076Z,2.03
2023-03-06T13:11:50.781Z,1.90
2023-03-06T13:14:23.272Z,2.40
2023-03-06T13:16:50.044Z,2.67
2023-03-06T13:19:19.245Z,1.75
2023-03-06T13:21:54.802Z,2.30
2023-03-06T13:24:28.252Z,2.35
2023-03-06T13:26:57.715Z,2.67
2023-03-06T13:29:36.111Z,2.90
2023-03-06T13:32:02.572Z,2.67
2023-03-06T13:34:31.682Z,3.05
2023-03-06T13:37:13.327Z,3.22
2023-03-06T13:39:54.742Z,3.45
2023-03-06T13:42:35.257Z,4.28
2023-03-06T13:45:08.619Z,3.97
2023-03-06T13:48:03.164Z,4.78
2023-03-06T13:50:27.827Z,4.40
2023-03-06T13:53:12.823Z,4.68
2023-03-06T13:55:51.177Z,4.50
2023-03-06T13:58:43.814Z,4.53
2023-03-06T14:01:27.319Z,5.15
2023-03-06T14:04:16.581Z,5.45
2023-03-06T14:06:51.188Z,5.63
2023-03-06T14:09:28.376Z,4.25
2023-03-06T14:11:57.762Z,7.05
2023-03-06T14:14:53.255Z,6.32
2023-03-06T14:17:37.580Z,6.57
2023-03-06T14:20:24.681Z,6.43
2023-03-06T14:22:51.054Z,6.93
2023-03-06T14:25:20.542Z,6.22
2023-03-06T14:27:50.503Z,6.35
2023-03-06T14:30:18.621Z,6.57
2023-03-06T14:32:45.069Z,6.88
2023-03-06T14:35:19.987Z,5.03
2023-03-06T14:37:48.286Z,6.53
2023-03-06T14:40:19.704Z,6.28
2023-03-06T14:42:46.028Z,5.40
2023-03-06T14:45:16.966Z,3.72
2023-03-06T14:47:43.676Z,3.45
2023-03-06T14:50:19.388Z,4.45
2023-03-06T14:52:46.066Z,3.90
2023-03-06T14:55:16.752Z,4.80
2023-03-06T14:57:43.322Z,3.55
2023-03-06T15:00:20.463Z,3.15
2023-03-06T15:02:47.520Z,3.17
2023-03-06T15:05:24.702Z,3.83
2023-03-06T15:07:52.726Z,4.30
2023-03-06T15:10:20.579Z,4.20
2023-03-06T15:12:46.975Z,4.50
2023-03-06T15:15:13.431Z,4.72
2023-03-06T15:17:40.006Z,4.90
2023-03-06T15:20:11.339Z,5.10
2023-03-06T15:22:41.029Z,4.50
2023-03-06T15:25:13.332Z,4.03
2023-03-06T15:27:39.855Z,4.40
2023-03-06T15:30:22.664Z,4.78
2023-03-06T15:32:48.998Z,3.60
2023-03-06T15:35:25.314Z,4.00
2023-03-06T15:37:52.264Z,4.32
2023-03-06T15:40:26.119Z,4.25
2023-03-06T15:42:52.508Z,4.50
2023-03-06T15:45:19.930Z,5.15
2023-03-06T15:47:47.846Z,4.70
2023-03-06T15:50:15.703Z,4.07
2023-03-06T15:52:42.415Z,3.67
2023-03-06T15:55:11.091Z,5.38
2023-03-06T15:57:37.678Z,5.10
2023-03-06T16:00:04.347Z,4.85
2023-03-06T16:02:37.858Z,5.65
2023-03-06T16:05:10.305Z,4.10
2023-03-06T16:07:36.623Z,5.70
2023-03-06T16:10:03.447Z,6.78
2023-03-06T16:12:30.300Z,7.18
2023-03-06T16:14:57.079Z,8.10
2023-03-06T16:17:23.424Z,8.35
2023-03-06T16:19:49.789Z,8.65
2023-03-06T16:22:16.126Z,7.88
2023-03-06T16:24:43.187Z,11.63
2023-03-06T16:27:14.973Z,12.32
2023-03-06T16:29:41.286Z,13.85
2023-03-06T16:32:10.402Z,12.82
2023-03-06T16:34:36.843Z,14.63
2023-03-06T16:37:03.253Z,16.02
2023-03-06T16:39:29.605Z,15.43
2023-03-06T16:41:56.038Z,15.68
2023-03-06T16:44:22.435Z,14.43
2023-03-06T16:46:49.657Z,13.38
2023-03-06T16:49:17.137Z,16.42
2023-03-06T16:51:43.974Z,14.48
2023-03-06T16:54:10.364Z,15.27
2023-03-06T16:56:36.665Z,18.70
2023-03-06T16:59:03.072Z,17.50
2023-03-06T17:01:29.528Z,17.90
2023-03-06T17:03:56.021Z,16.58
2023-03-06T17:06:22.800Z,16.17
2023-03-06T17:08:49.774Z,16.80
2023-03-06T17:11:16.393Z,16.13
2023-03-06T17:13:42.757Z,15.70
2023-03-06T17:16:12.771Z,15.85
2023-03-06T17:18:41.933Z,15.63
2023-03-06T17:21:08.552Z,17.42
2023-03-06T17:23:37.802Z,15.15
2023-03-06T17:26:11.584Z,15.65
2023-03-06T17:28:38.454Z,15.82
2023-03-06T17:31:12.126Z,16.48
2023-03-06T17:33:38.516Z,16.80
2023-03-06T17:36:06.527Z,16.45
2023-03-06T17:38:32.931Z,16.38
2023-03-06T17:41:03.777Z,15.25
2023-03-06T17:43:30.523Z,15.88
2023-03-06T17:45:56.848Z,16.25
2023-03-06T17:48:23.252Z,15.68
2023-03-06T17:50:53.547Z,15.85
2023-03-06T17:53:19.932Z,14.68
2023-03-06T17:55:46.386Z,14.02
2023-03-06T17:58:13.382Z,12.98
2023-03-06T18:00:42.295Z,14.52
2023-03-06T18:03:09.624Z,15.73
2023-03-06T18:05:36.668Z,15.65
2023-03-06T18:08:03.475Z,16.10
2023-03-06T18:10:29.872Z,14.73
2023-03-06T18:12:59.009Z,15.63
2023-03-06T18:15:27.932Z,16.08
2023-03-06T18:17:56.398Z,12.07
2023-03-06T18:20:22.768Z,16.80
2023-03-06T18:22:49.140Z,14.07
2023-03-06T18:25:17.488Z,16.35
2023-03-06T18:27:43.974Z,17.15
2023-03-06T18:30:10.692Z,17.52
2023-03-06T18:32:37.070Z,17.45
2023-03-06T18:35:05.091Z,9.75
2023-03-06T18:37:31.821Z,19.35
2023-03-06T18:39:58.387Z,20.08
2023-03-06T18:42:26.176Z,18.92
2023-03-06T18:44:52.514Z,18.50
2023-03-06T18:47:19.143Z,19.15
2023-03-06T18:49:45.943Z,19.80
2023-03-06T18:52:12.877Z,18.88
2023-03-06T18:54:39.348Z,18.02
2023-03-06T18:57:07.034Z,17.20
2023-03-06T18:59:33.462Z,17.90
2023-03-06T19:01:59.782Z,19.83
2023-03-06T19:04:26.639Z,17.30
2023-03-06T19:06:54.548Z,18.38
2023-03-06T19:09:21.355Z,18.25
2023-03-06T19:11:48.753Z,19.83
2023-03-06T19:14:15.762Z,18.60
2023-03-06T19:16:42.251Z,17.02
2023-03-06T19:19:11.637Z,18.48
2023-03-06T19:21:37.967Z,17.23
2023-03-06T19:24:04.595Z,18.83
2023-03-06T19:26:31.393Z,19.80
2023-03-06T19:28:57.803Z,19.17
2023-03-06T19:31:26.160Z,20.95
2023-03-06T19:33:53.551Z,19.38
2023-03-06T19:36:25.344Z,19.52
2023-03-06T19:38:55.634Z,18.92
2023-03-06T19:41:22.076Z,19.02
2023-03-06T19:43:50.073Z,23.73
2023-03-06T19:46:16.503Z,18.83
2023-03-06T19:48:43.537Z,21.55
2023-03-06T19:51:10.575Z,21.27
2023-03-06T19:53:37.734Z,21.83
2023-03-06T19:56:08.327Z,20.63
2023-03-06T19:58:36.819Z,18.75
2023-03-06T20:01:04.674Z,20.80
2023-03-06T20:03:31.009Z,24.13
2023-03-06T20:05:57.409Z,22.35
2023-03-06T20:08:23.744Z,22.60
2023-03-06T20:10:50.091Z,22.30
2023-03-06T20:13:16.411Z,24.95
2023-03-06T20:15:42.821Z,23.85
2023-03-06T20:18:09.292Z,28.20
2023-03-06T20:20:37.742Z,25.75
2023-03-06T20:23:04.603Z,22.92
2023-03-06T20:25:31.194Z,22.48
2023-03-06T20:27:57.581Z,24.73
2023-03-06T20:30:26.401Z,23.90
2023-03-06T20:32:57.321Z,20.90
2023-03-06T20:35:23.771Z,23.17
2023-03-06T20:37:50.132Z,26.75
2023-03-06T20:40:21.920Z,24.55
2023-03-06T20:42:48.639Z,26.13
2023-03-06T20:45:15.512Z,23.90
2023-03-06T20:47:47.000Z,25.25
2023-03-06T20:50:14.357Z,23.92
2023-03-06T20:52:40.834Z,25.67
2023-03-06T20:55:07.360Z,24.23
2023-03-06T20:57:35.686Z,23.75
2023-03-06T21:00:02.500Z,25.38
2023-03-06T21:02:40.984Z,27.40
2023-03-06T21:05:07.616Z,24.23
2023-03-06T21:07:36.716Z,24.88
2023-03-06T21:10:03.692Z,24.75
2023-03-06T21:12:31.520Z,25.35
2023-03-06T21:14:59.415Z,24.95
2023-03-06T21:17:25.728Z,27.20
2023-03-06T21:19:52.755Z,26.98
2023-03-06T21:22:21.898Z,20.58
2023-03-06T21:24:55.024Z,26.33
2023-03-06T21:27:26.797Z,23.17
2023-03-06T21:29:57.908Z,24.75
2023-03-06T21:32:24.258Z,26.17
2023-03-06T21:34:50.590Z,23.23
2023-03-06T21:37:16.967Z,26.77
2023-03-06T21:39:43.547Z,24.15
2023-03-06T21:42:09.881Z,27.63
2023-03-06T21:44:36.525Z,24.95
2023-03-06T21:47:04.904Z,21.92
2023-03-06T21:49:32.213Z,22.08
2023-03-06T21:51:58.643Z,24.13
2023-03-06T21:54:29.183Z,19.90
2023-03-06T21:56:55.671Z,19.45
2023-03-06T21:59:25.217Z,13.88
2023-03-06T22:01:53.714Z,17.05
2023-03-06T22:04:21.468Z,17.17
2023-03-06T22:06:47.831Z,12.57
2023-03-06T22:09:16.131Z,11.43
2023-03-06T22:11:50.276Z,14.75
2023-03-06T22:14:16.689Z,14.20
2023-03-06T22:16:43.123Z,13.15
2023-03-06T22:19:09.487Z,14.18
2023-03-06T22:21:35.825Z,11.93
2023-03-06T22:24:02.287Z,14.18
2023-03-06T22:26:30.443Z,11.25
2023-03-06T22:28:57.130Z,12.00
2023-03-06T22:31:25.456Z,12.10
2023-03-06T22:33:52.995Z,11.63
2023-03-06T22:36:19.886Z,10.40
2023-03-06T22:38:48.591Z,11.13
2023-03-06T22:41:16.356Z,11.02
2023-03-06T22:43:43.264Z,10.88
2023-03-06T22:46:11.746Z,9.32
2023-03-06T22:48:38.170Z,9.35
2023-03-06T22:51:09.356Z,8.70
2023-03-06T22:53:35.800Z,9.15
2023-03-06T22:56:03.529Z,8.57
2023-03-06T22:58:34.423Z,8.25
2023-03-06T23:01:11.150Z,7.80
2023-03-06T23:03:39.510Z,7.85
2023-03-06T23:06:38.044Z,7.35
2023-03-06T23:09:08.735Z,6.75
2023-03-06T23:11:54.468Z,6.93
2023-03-06T23:14:39.393Z,6.00
2023-03-06T23:17:24.825Z,6.10
2023-03-06T23:20:10.233Z,6.05
2023-03-06T23:22:54.991Z,5.20
2023-03-06T23:25:39.716Z,5.65
2023-03-06T23:28:09.243Z,5.18
2023-03-06T23:30:37.873Z,4.88
2023-03-06T23:33:04.977Z,4.75
2023-03-06T23:35:32.464Z,4.72
2023-03-06T23:37:59.920Z,3.83
2023-03-06T23:40:27.228Z,5.90
2023-03-06T23:42:53.619Z,5.63
2023-03-06T23:45:20.025Z,6.53
2023-03-06T23:47:46.332Z,6.72
2023-03-06T23:50:12.680Z,7.13
2023-03-06T23:52:39.002Z,7.03
2023-03-06T23:55:05.837Z,6.72
2023-03-06T23:57:32.561Z,8.15
2023-03-06T23:59:58.979Z,7.68
